Westover AFB, Massachusetts
Current Conditions -  °F | °C
As of 3:58 AM on Wednesday 28 Jan 2015 (Local Time) from KCEF Reporting Station
Broken Clouds Broken Clouds  
Wind Chill: -1°   Ceiling: 6000
Heat Index: 13°   Visibility: 10mi
Dew Point:   Wind: 13mph
Humidity: 55%   Direction: 10°N
Pressure: 29.82"   Gusts: NA
Location:  42.1968°N, 72.5424°W
Report Text: KCEF 280858Z AUTO 01011KT 10SM BKN060 BKN120 M10/M18 A2982 RMK AO2 CIG 060 RWY23 SLP108 T11051180 52022
Loading
Personal Weather Stations






























Interactive Weather Map New forecast layout! Learn more

10-Day Weather Forecast

Advertisements
Track Severe Weather on mobile